Time;durP1;ratioP1;P1;durP2;ratioP2;P2;SDS_P1;SDS_P2;PMS_P1;PMS_P2;Temp;Humidity;BMP_temperature;BMP_pressure;BME280_temperature;BME280_humidity;BME280_pressure;Samples;Min_cycle;Max_cycle;Signal;HPM_P1;HPM_P2
2023/10/26 00:00:35;;;;;;;15.77;11.13;;;;;;;;;;5004024;28;20030;-66
2023/10/26 00:03:01;;;;;;;16.75;11.75;;;;;;;;;;5002872;28;20033;-66
2023/10/26 00:05:28;;;;;;;20.17;12.93;;;;;;;;;;5001597;28;20033;-66
2023/10/26 00:07:54;;;;;;;16.20;11.07;;;;;;;;;;5002335;28;20087;-66
2023/10/26 00:10:20;;;;;;;18.77;11.48;;;;;;;;;;5002942;28;20056;-66
2023/10/26 00:12:46;;;;;;;19.10;11.77;;;;;;;;;;5002682;28;20888;-66
2023/10/26 00:15:12;;;;;;;16.77;11.80;;;;;;;;;;5002598;28;20029;-66
2023/10/26 00:17:38;;;;;;;17.70;11.90;;;;;;;;;;5002813;28;20033;-66
2023/10/26 00:20:08;;;;;;;20.70;12.38;;;;;;;;;;5003416;28;20101;-66
2023/10/26 00:22:37;;;;;;;18.77;11.63;;;;;;;;;;5003767;28;20472;-66
2023/10/26 00:25:03;;;;;;;17.20;12.18;;;;;;;;;;5003070;28;20037;-66
2023/10/26 00:27:29;;;;;;;20.02;13.05;;;;;;;;;;5002934;28;20036;-66
2023/10/26 00:29:56;;;;;;;14.55;11.65;;;;;;;;;;5002661;28;20045;-66
2023/10/26 00:32:22;;;;;;;19.98;12.13;;;;;;;;;;5003604;28;20038;-66
2023/10/26 00:34:48;;;;;;;16.10;12.65;;;;;;;;;;5003817;28;20488;-66
2023/10/26 00:37:14;;;;;;;17.90;12.57;;;;;;;;;;5003568;28;20040;-66
2023/10/26 00:39:40;;;;;;;19.63;12.88;;;;;;;;;;5003410;28;20037;-66
2023/10/26 00:42:06;;;;;;;20.33;12.80;;;;;;;;;;5003167;28;20172;-66
2023/10/26 00:44:32;;;;;;;18.13;13.20;;;;;;;;;;5003454;28;20091;-66
2023/10/26 00:46:58;;;;;;;19.05;12.68;;;;;;;;;;5003696;28;20084;-66
2023/10/26 00:49:25;;;;;;;21.30;13.43;;;;;;;;;;5003996;28;20574;-66
2023/10/26 00:51:56;;;;;;;21.77;13.65;;;;;;;;;;5003987;28;20036;-66
2023/10/26 00:54:22;;;;;;;16.92;13.10;;;;;;;;;;5003214;28;20029;-66
2023/10/26 00:56:50;;;;;;;19.23;12.73;;;;;;;;;;5003530;28;20049;-66
2023/10/26 00:59:17;;;;;;;32.08;14.85;;;;;;;;;;5001917;28;20025;-66
2023/10/26 01:01:48;;;;;;;21.15;14.60;;;;;;;;;;5003330;28;20033;-66
2023/10/26 01:04:14;;;;;;;30.92;15.68;;;;;;;;;;5002325;28;20138;-66
2023/10/26 01:06:41;;;;;;;17.42;13.10;;;;;;;;;;5003859;28;20048;-66
2023/10/26 01:09:08;;;;;;;19.08;14.02;;;;;;;;;;5003304;28;20505;-66
2023/10/26 01:11:34;;;;;;;20.30;15.98;;;;;;;;;;5003110;28;20155;-66
2023/10/26 01:14:00;;;;;;;24.27;17.25;;;;;;;;;;5002585;28;20029;-66
2023/10/26 01:16:26;;;;;;;27.75;18.92;;;;;;;;;;5002159;28;20034;-66
2023/10/26 01:18:52;;;;;;;24.95;17.15;;;;;;;;;;5002605;28;20045;-66
2023/10/26 01:21:18;;;;;;;26.80;18.00;;;;;;;;;;5003427;28;20037;-66
2023/10/26 01:23:44;;;;;;;24.88;17.77;;;;;;;;;;5001668;28;20080;-66
2023/10/26 01:26:10;;;;;;;22.23;17.33;;;;;;;;;;5003816;28;20047;-66
2023/10/26 01:28:37;;;;;;;23.70;17.58;;;;;;;;;;5002245;28;20034;-66
2023/10/26 01:31:03;;;;;;;24.45;18.63;;;;;;;;;;5003121;28;20037;-66
2023/10/26 01:33:29;;;;;;;24.10;19.38;;;;;;;;;;5001875;28;20033;-66
2023/10/26 01:35:55;;;;;;;26.35;20.63;;;;;;;;;;5002890;28;20124;-66
2023/10/26 01:38:21;;;;;;;28.73;19.88;;;;;;;;;;5002652;28;20080;-66
2023/10/26 01:40:49;;;;;;;27.40;20.35;;;;;;;;;;5003393;28;20049;-66
2023/10/26 01:43:15;;;;;;;30.23;21.13;;;;;;;;;;5001935;28;20848;-66
2023/10/26 01:45:41;;;;;;;28.92;21.23;;;;;;;;;;5002876;28;20041;-66
2023/10/26 01:48:07;;;;;;;29.10;21.10;;;;;;;;;;5002710;28;20046;-66
2023/10/26 01:50:33;;;;;;;28.60;20.40;;;;;;;;;;5002623;28;20048;-66
2023/10/26 01:52:59;;;;;;;33.60;22.50;;;;;;;;;;5003106;28;20116;-66
2023/10/26 01:55:26;;;;;;;28.27;19.70;;;;;;;;;;5002938;28;20127;-66
2023/10/26 01:57:52;;;;;;;25.90;19.63;;;;;;;;;;5002867;28;20665;-66
2023/10/26 02:00:18;;;;;;;25.63;19.42;;;;;;;;;;5003055;28;20041;-66
2023/10/26 02:02:46;;;;;;;25.33;19.92;;;;;;;;;;5003097;28;20061;-66
2023/10/26 02:05:12;;;;;;;22.60;19.05;;;;;;;;;;5002672;28;20030;-66
2023/10/26 02:07:38;;;;;;;26.17;19.08;;;;;;;;;;5002654;28;20040;-66
2023/10/26 02:10:04;;;;;;;22.40;18.67;;;;;;;;;;5002525;28;20030;-66
2023/10/26 02:12:30;;;;;;;30.05;19.85;;;;;;;;;;5002968;28;20038;-66
2023/10/26 02:14:56;;;;;;;23.00;19.77;;;;;;;;;;5002952;28;20408;-66
2023/10/26 02:17:22;;;;;;;25.15;20.02;;;;;;;;;;5002450;28;20897;-66
2023/10/26 02:19:48;;;;;;;29.52;17.73;;;;;;;;;;5002863;28;20026;-66
2023/10/26 02:22:15;;;;;;;24.38;18.20;;;;;;;;;;5002495;28;20115;-66
2023/10/26 02:24:41;;;;;;;24.45;18.67;;;;;;;;;;5002105;28;20034;-66
2023/10/26 02:27:07;;;;;;;34.47;20.85;;;;;;;;;;5003670;28;20192;-66
2023/10/26 02:29:34;;;;;;;36.45;20.67;;;;;;;;;;5005740;28;20775;-66
2023/10/26 02:32:00;;;;;;;31.15;20.33;;;;;;;;;;5004815;28;20045;-66
2023/10/26 02:34:26;;;;;;;28.33;19.13;;;;;;;;;;5005410;28;20037;-66
2023/10/26 02:36:52;;;;;;;27.02;18.83;;;;;;;;;;5006201;28;20041;-66
2023/10/26 02:39:18;;;;;;;25.27;19.90;;;;;;;;;;5004024;28;20799;-66
2023/10/26 02:41:44;;;;;;;26.58;19.40;;;;;;;;;;5004777;28;20044;-66
2023/10/26 02:44:10;;;;;;;25.58;18.65;;;;;;;;;;5005973;28;20587;-66
2023/10/26 02:46:36;;;;;;;26.67;20.55;;;;;;;;;;5006391;28;20444;-66
2023/10/26 02:49:02;;;;;;;24.17;18.63;;;;;;;;;;5006100;28;20475;-66
2023/10/26 02:51:28;;;;;;;23.38;19.02;;;;;;;;;;5006565;28;20716;-66
2023/10/26 02:53:54;;;;;;;23.65;18.98;;;;;;;;;;5006159;28;20029;-66
2023/10/26 02:56:20;;;;;;;29.77;21.42;;;;;;;;;;5004700;28;21681;-66
2023/10/26 02:58:47;;;;;;;31.15;22.55;;;;;;;;;;5003170;28;20489;-66
2023/10/26 03:01:13;;;;;;;30.10;21.05;;;;;;;;;;5004590;28;20038;-66
2023/10/26 03:03:39;;;;;;;29.17;21.45;;;;;;;;;;5004085;28;20071;-66
2023/10/26 03:06:05;;;;;;;30.08;22.67;;;;;;;;;;5003546;28;20041;-66
2023/10/26 03:08:31;;;;;;;28.92;21.52;;;;;;;;;;5005983;28;20402;-66
2023/10/26 03:10:57;;;;;;;30.40;22.08;;;;;;;;;;5005603;28;20591;-66
2023/10/26 03:13:23;;;;;;;28.40;22.25;;;;;;;;;;5005057;28;20084;-66
2023/10/26 03:15:50;;;;;;;28.50;22.35;;;;;;;;;;5004640;28;21756;-66
2023/10/26 03:18:16;;;;;;;32.85;24.40;;;;;;;;;;5003484;28;20735;-66
2023/10/26 03:20:42;;;;;;;32.88;24.02;;;;;;;;;;5005430;28;20033;-66
2023/10/26 03:23:08;;;;;;;30.77;22.85;;;;;;;;;;5005534;28;20029;-65
2023/10/26 03:25:34;;;;;;;31.25;25.52;;;;;;;;;;5004878;28;20025;-66
2023/10/26 03:28:00;;;;;;;32.10;23.13;;;;;;;;;;5004710;28;20038;-66
2023/10/26 03:30:26;;;;;;;32.58;23.95;;;;;;;;;;5005118;28;20037;-65
2023/10/26 03:32:54;;;;;;;34.88;25.27;;;;;;;;;;4999037;28;20160;-66
2023/10/26 03:35:20;;;;;;;34.03;23.90;;;;;;;;;;5005411;28;20037;-65
2023/10/26 03:37:46;;;;;;;30.27;23.75;;;;;;;;;;5005129;28;20094;-66
2023/10/26 03:40:14;;;;;;;35.85;24.40;;;;;;;;;;5004362;28;20360;-66
2023/10/26 03:42:40;;;;;;;33.05;23.67;;;;;;;;;;5004647;28;20049;-66
2023/10/26 03:45:06;;;;;;;31.40;25.00;;;;;;;;;;5004471;28;20112;-66
2023/10/26 03:47:36;;;;;;;31.90;23.67;;;;;;;;;;5004634;28;21775;-66
2023/10/26 03:50:02;;;;;;;28.55;22.05;;;;;;;;;;5004696;28;20084;-66
2023/10/26 03:52:28;;;;;;;30.20;23.83;;;;;;;;;;5006684;28;20038;-65
2023/10/26 03:54:54;;;;;;;31.58;23.30;;;;;;;;;;5004657;28;20025;-65
2023/10/26 03:57:21;;;;;;;32.08;24.58;;;;;;;;;;5003741;28;20128;-66
2023/10/26 03:59:47;;;;;;;34.90;24.92;;;;;;;;;;5004565;28;20030;-66
2023/10/26 04:02:13;;;;;;;32.15;23.45;;;;;;;;;;5004866;28;20044;-66
2023/10/26 04:04:40;;;;;;;29.48;21.45;;;;;;;;;;5004786;28;20029;-66
2023/10/26 04:07:07;;;;;;;30.50;23.17;;;;;;;;;;5004764;28;20077;-66
2023/10/26 04:09:33;;;;;;;31.20;22.92;;;;;;;;;;5004742;28;20038;-66
2023/10/26 04:11:59;;;;;;;29.00;22.20;;;;;;;;;;5004323;28;20105;-66
2023/10/26 04:14:26;;;;;;;32.85;24.58;;;;;;;;;;5003671;28;20579;-66
2023/10/26 04:16:52;;;;;;;30.85;23.00;;;;;;;;;;5003570;28;20044;-66
2023/10/26 04:19:18;;;;;;;30.83;23.38;;;;;;;;;;5004617;28;20029;-65
2023/10/26 04:21:45;;;;;;;32.33;23.60;;;;;;;;;;5004333;28;20025;-66
2023/10/26 04:24:11;;;;;;;30.33;22.25;;;;;;;;;;5004265;28;20080;-66
2023/10/26 04:26:37;;;;;;;30.30;23.55;;;;;;;;;;5004496;28;20036;-66
2023/10/26 04:29:05;;;;;;;30.80;22.20;;;;;;;;;;5003542;28;20033;-66
2023/10/26 04:31:31;;;;;;;30.85;21.98;;;;;;;;;;5003983;28;20044;-66
2023/10/26 04:33:58;;;;;;;38.05;24.15;;;;;;;;;;5003638;28;20075;-66
2023/10/26 04:36:24;;;;;;;30.73;23.75;;;;;;;;;;5004488;28;20045;-66
2023/10/26 04:38:51;;;;;;;32.33;24.98;;;;;;;;;;5003820;28;20030;-66
2023/10/26 04:41:17;;;;;;;30.95;23.67;;;;;;;;;;5003409;28;20037;-66
2023/10/26 04:43:43;;;;;;;36.03;23.25;;;;;;;;;;5003433;28;20037;-66
2023/10/26 04:46:09;;;;;;;29.08;21.83;;;;;;;;;;5003628;28;20040;-65
2023/10/26 04:48:35;;;;;;;33.72;24.45;;;;;;;;;;5003037;28;20488;-65
2023/10/26 04:51:01;;;;;;;29.10;22.63;;;;;;;;;;5003742;28;20037;-66
2023/10/26 04:53:28;;;;;;;33.03;23.83;;;;;;;;;;5002997;28;20052;-66
2023/10/26 04:55:54;;;;;;;35.67;23.83;;;;;;;;;;5003675;28;20124;-66
2023/10/26 04:58:20;;;;;;;30.05;23.13;;;;;;;;;;5004922;28;20087;-65
2023/10/26 05:00:46;;;;;;;33.92;23.50;;;;;;;;;;5003243;28;20639;-66
2023/10/26 05:03:12;;;;;;;34.08;23.95;;;;;;;;;;5003523;28;20788;-66
2023/10/26 05:05:38;;;;;;;32.00;21.70;;;;;;;;;;5001045;28;21530;-66
2023/10/26 05:08:04;;;;;;;35.42;22.25;;;;;;;;;;5004129;28;20880;-66
2023/10/26 05:10:30;;;;;;;28.35;20.67;;;;;;;;;;5003020;28;20076;-66
2023/10/26 05:12:56;;;;;;;23.95;18.15;;;;;;;;;;5003613;28;20025;-65
2023/10/26 05:15:22;;;;;;;27.00;20.33;;;;;;;;;;5002385;28;20037;-66
2023/10/26 05:17:48;;;;;;;27.77;21.42;;;;;;;;;;5003379;28;20042;-66
2023/10/26 05:20:14;;;;;;;33.80;20.85;;;;;;;;;;5001308;28;20038;-65
2023/10/26 05:22:41;;;;;;;27.30;21.13;;;;;;;;;;4997136;28;20601;-65
2023/10/26 05:25:10;;;;;;;34.55;21.67;;;;;;;;;;5002501;28;21355;-65
2023/10/26 05:27:36;;;;;;;25.80;20.88;;;;;;;;;;5001531;28;20037;-65
2023/10/26 05:30:02;;;;;;;25.13;19.67;;;;;;;;;;5002279;28;20040;-65
2023/10/26 05:32:29;;;;;;;26.40;19.65;;;;;;;;;;5002396;28;20096;-65
2023/10/26 05:34:55;;;;;;;41.05;22.77;;;;;;;;;;5002843;28;20025;-66
2023/10/26 05:37:21;;;;;;;31.75;21.05;;;;;;;;;;5002672;28;20044;-65
2023/10/26 05:39:47;;;;;;;27.95;20.92;;;;;;;;;;5003046;28;20180;-67
2023/10/26 05:42:13;;;;;;;28.30;21.40;;;;;;;;;;5002015;28;20040;-66
2023/10/26 05:44:39;;;;;;;32.10;23.33;;;;;;;;;;5002649;28;20025;-66
2023/10/26 05:47:05;;;;;;;50.15;27.90;;;;;;;;;;5002602;28;20037;-65
2023/10/26 05:49:31;;;;;;;32.35;22.08;;;;;;;;;;5002725;28;20268;-66
2023/10/26 05:52:00;;;;;;;48.25;19.27;;;;;;;;;;5001921;28;20029;-66
2023/10/26 05:54:26;;;;;;;31.67;19.60;;;;;;;;;;5002352;28;20091;-65
2023/10/26 05:56:52;;;;;;;23.33;18.02;;;;;;;;;;5002049;28;20079;-66
2023/10/26 05:59:18;;;;;;;24.40;17.83;;;;;;;;;;5002453;28;20038;-66
2023/10/26 06:01:44;;;;;;;26.73;16.25;;;;;;;;;;5003498;28;20048;-65
2023/10/26 06:04:10;;;;;;;32.08;16.95;;;;;;;;;;5006926;28;20041;-66
2023/10/26 06:06:37;;;;;;;67.43;17.95;;;;;;;;;;5006957;28;20091;-65
2023/10/26 06:09:03;;;;;;;62.13;17.58;;;;;;;;;;5021142;28;20044;-63
2023/10/26 06:11:29;;;;;;;30.50;14.57;;;;;;;;;;5004986;28;20053;-63
2023/10/26 06:13:55;;;;;;;93.95;19.85;;;;;;;;;;5006196;28;20091;-64
2023/10/26 06:16:22;;;;;;;65.13;18.70;;;;;;;;;;5006415;28;20069;-64
2023/10/26 06:18:48;;;;;;;62.55;17.58;;;;;;;;;;5005863;28;20072;-63
2023/10/26 06:21:14;;;;;;;25.02;16.95;;;;;;;;;;5006189;28;20087;-63
2023/10/26 06:23:40;;;;;;;18.73;14.77;;;;;;;;;;5005790;28;20041;-63
2023/10/26 06:26:06;;;;;;;42.00;16.73;;;;;;;;;;5006590;28;20040;-63
2023/10/26 06:28:32;;;;;;;52.85;16.75;;;;;;;;;;5006185;28;20440;-63
2023/10/26 06:31:08;;;;;;;27.98;15.82;;;;;;;;;;5006124;28;20029;-63
2023/10/26 06:33:34;;;;;;;84.30;17.55;;;;;;;;;;5005782;28;20033;-64
2023/10/26 06:36:00;;;;;;;186.02;21.90;;;;;;;;;;5005875;28;20033;-63
2023/10/26 06:38:26;;;;;;;123.43;19.33;;;;;;;;;;5006096;28;20156;-63
2023/10/26 06:40:52;;;;;;;97.80;19.90;;;;;;;;;;5005183;28;20113;-64
2023/10/26 06:43:18;;;;;;;166.15;23.08;;;;;;;;;;5009946;28;20033;-63
2023/10/26 06:45:44;;;;;;;115.90;20.30;;;;;;;;;;5011893;28;20066;-63
2023/10/26 06:48:11;;;;;;;85.15;19.90;;;;;;;;;;5011831;28;20551;-64
2023/10/26 06:50:37;;;;;;;235.52;22.48;;;;;;;;;;5011300;28;20029;-63
2023/10/26 06:53:03;;;;;;;84.13;16.90;;;;;;;;;;5011963;28;21141;-63
2023/10/26 06:55:33;;;;;;;194.52;22.45;;;;;;;;;;5011546;28;20782;-63
2023/10/26 06:57:59;;;;;;;119.88;18.83;;;;;;;;;;5011018;28;20087;-63
2023/10/26 07:00:26;;;;;;;158.48;19.58;;;;;;;;;;5011614;28;20112;-64
2023/10/26 07:02:52;;;;;;;114.85;18.55;;;;;;;;;;5011931;28;20033;-64
2023/10/26 07:05:18;;;;;;;63.28;18.45;;;;;;;;;;5012203;28;20060;-63
2023/10/26 07:07:44;;;;;;;150.63;23.48;;;;;;;;;;5011446;28;20106;-63
2023/10/26 07:10:15;;;;;;;110.10;20.33;;;;;;;;;;5011793;28;20034;-63
2023/10/26 07:12:41;;;;;;;160.27;22.25;;;;;;;;;;5011539;28;20033;-63
2023/10/26 07:15:07;;;;;;;172.60;27.88;;;;;;;;;;5010256;28;20021;-63
2023/10/26 07:17:34;;;;;;;254.73;32.83;;;;;;;;;;5011872;28;20428;-63
2023/10/26 07:20:01;;;;;;;243.63;24.33;;;;;;;;;;5012144;28;20032;-63
2023/10/26 07:22:27;;;;;;;149.93;23.00;;;;;;;;;;5011914;28;20034;-63
2023/10/26 07:24:53;;;;;;;146.27;21.40;;;;;;;;;;5012050;28;20083;-63
2023/10/26 07:27:19;;;;;;;61.78;18.13;;;;;;;;;;5011375;28;20030;-64
2023/10/26 07:29:46;;;;;;;83.40;20.50;;;;;;;;;;5011326;28;20049;-63
2023/10/26 07:32:12;;;;;;;106.72;19.40;;;;;;;;;;5010691;28;20112;-63
2023/10/26 07:34:38;;;;;;;41.42;17.08;;;;;;;;;;5011268;28;20041;-63
2023/10/26 07:37:05;;;;;;;59.00;19.00;;;;;;;;;;5010873;28;20040;-64
2023/10/26 07:39:35;;;;;;;39.55;18.65;;;;;;;;;;5027231;28;20037;-64
2023/10/26 07:42:01;;;;;;;53.30;22.05;;;;;;;;;;5010302;28;20495;-64
2023/10/26 07:44:27;;;;;;;45.72;22.83;;;;;;;;;;5010572;28;20100;-64
2023/10/26 07:46:53;;;;;;;49.08;24.02;;;;;;;;;;5010307;28;20030;-63
2023/10/26 07:49:19;;;;;;;36.95;23.25;;;;;;;;;;5008890;28;20029;-64
2023/10/26 07:51:45;;;;;;;43.70;26.73;;;;;;;;;;4998103;28;20053;-64
2023/10/26 07:54:11;;;;;;;37.60;25.63;;;;;;;;;;4999325;28;20120;-64
2023/10/26 07:56:38;;;;;;;48.50;26.98;;;;;;;;;;4997897;28;20044;-64
2023/10/26 07:59:04;;;;;;;43.15;26.25;;;;;;;;;;5002344;28;20596;-64
2023/10/26 08:01:31;;;;;;;41.58;27.45;;;;;;;;;;5001044;28;20492;-64
2023/10/26 08:03:57;;;;;;;38.03;25.58;;;;;;;;;;5000101;28;21894;-64
2023/10/26 08:06:24;;;;;;;40.25;25.95;;;;;;;;;;4998266;28;20518;-64
2023/10/26 08:08:53;;;;;;;42.40;25.67;;;;;;;;;;4999988;28;20037;-64
2023/10/26 08:11:19;;;;;;;38.70;25.20;;;;;;;;;;5001482;28;20029;-64
2023/10/26 08:13:46;;;;;;;45.95;28.38;;;;;;;;;;5001051;28;20042;-64
2023/10/26 08:16:12;;;;;;;46.05;26.25;;;;;;;;;;5000937;28;20083;-64
2023/10/26 08:18:38;;;;;;;47.22;26.73;;;;;;;;;;5000816;28;20129;-64
2023/10/26 08:21:05;;;;;;;40.72;25.92;;;;;;;;;;5016671;28;20048;-64
2023/10/26 08:23:33;;;;;;;50.50;28.25;;;;;;;;;;4999765;28;20107;-64
2023/10/26 08:26:05;;;;;;;52.58;27.75;;;;;;;;;;4999361;28;20029;-64
2023/10/26 08:28:31;;;;;;;45.63;26.38;;;;;;;;;;5000082;28;20033;-64
2023/10/26 08:30:58;;;;;;;50.47;27.20;;;;;;;;;;5000346;28;20045;-64
2023/10/26 08:33:24;;;;;;;45.35;26.63;;;;;;;;;;4999309;28;20046;-64
2023/10/26 08:35:50;;;;;;;46.15;26.63;;;;;;;;;;5000986;28;20041;-64
2023/10/26 08:38:16;;;;;;;45.10;27.67;;;;;;;;;;4999759;28;20029;-64
2023/10/26 08:40:55;;;;;;;51.83;29.58;;;;;;;;;;4999729;28;20062;-64
2023/10/26 08:43:23;;;;;;;51.55;28.38;;;;;;;;;;5000572;28;20030;-64
2023/10/26 08:45:49;;;;;;;49.72;29.25;;;;;;;;;;5000313;28;20167;-64
2023/10/26 08:48:16;;;;;;;50.20;30.23;;;;;;;;;;4999311;28;20618;-64
2023/10/26 08:50:42;;;;;;;53.28;28.17;;;;;;;;;;4998857;28;20033;-63
2023/10/26 08:53:09;;;;;;;49.55;27.92;;;;;;;;;;4998195;28;20737;-64
2023/10/26 08:55:39;;;;;;;57.10;30.60;;;;;;;;;;4997159;28;20041;-64
2023/10/26 08:58:05;;;;;;;52.05;29.52;;;;;;;;;;4998642;28;20053;-63
2023/10/26 09:00:32;;;;;;;48.95;28.90;;;;;;;;;;4997341;28;20037;-64
2023/10/26 09:02:58;;;;;;;40.80;26.30;;;;;;;;;;4997266;28;20053;-63
2023/10/26 09:05:24;;;;;;;44.47;26.55;;;;;;;;;;4998197;28;20043;-64
2023/10/26 09:07:54;;;;;;;44.47;27.15;;;;;;;;;;4998162;28;20034;-63
2023/10/26 09:10:29;;;;;;;41.22;26.02;;;;;;;;;;4999279;28;20030;-63
2023/10/26 09:12:58;;;;;;;39.92;27.17;;;;;;;;;;4998815;28;20029;-63
2023/10/26 09:15:24;;;;;;;41.03;26.80;;;;;;;;;;4998753;28;20074;-64
2023/10/26 09:17:53;;;;;;;37.67;24.85;;;;;;;;;;4997676;28;20132;-63
2023/10/26 09:20:22;;;;;;;47.50;29.80;;;;;;;;;;4998481;28;20091;-63
2023/10/26 09:22:48;;;;;;;30.65;23.35;;;;;;;;;;4998092;28;20030;-63
2023/10/26 09:25:15;;;;;;;33.78;23.63;;;;;;;;;;4997442;28;20033;-63
2023/10/26 09:27:42;;;;;;;31.45;22.08;;;;;;;;;;4998816;28;20481;-63
2023/10/26 09:30:25;;;;;;;40.05;24.30;;;;;;;;;;4998986;28;20405;-64
2023/10/26 09:32:51;;;;;;;34.00;20.65;;;;;;;;;;4998589;28;20141;-64
2023/10/26 09:35:31;;;;;;;34.42;22.15;;;;;;;;;;4997730;28;20053;-63
2023/10/26 09:37:58;;;;;;;32.17;20.23;;;;;;;;;;5000883;28;20397;-63
2023/10/26 09:40:24;;;;;;;30.13;22.13;;;;;;;;;;5002517;28;20064;-63
2023/10/26 09:42:51;;;;;;;28.67;21.65;;;;;;;;;;4992933;28;20480;-63
2023/10/26 09:45:21;;;;;;;27.75;20.13;;;;;;;;;;4995357;28;20038;-64
2023/10/26 09:47:47;;;;;;;28.00;19.52;;;;;;;;;;4995437;28;20064;-64
2023/10/26 09:50:14;;;;;;;34.28;21.08;;;;;;;;;;4994779;28;20412;-64
2023/10/26 09:52:41;;;;;;;30.33;20.98;;;;;;;;;;4992908;28;20033;-64
2023/10/26 09:55:08;;;;;;;27.90;20.75;;;;;;;;;;4994635;28;20482;-63
2023/10/26 13:59:05;;;;;;;37.92;21.80;;;;;;;;;;5022681;28;20504;-63
2023/10/26 14:01:31;;;;;;;41.30;25.63;;;;;;;;;;5009077;28;20047;-63
2023/10/26 14:03:57;;;;;;;42.47;26.88;;;;;;;;;;5008250;28;20032;-63
2023/10/26 14:06:26;;;;;;;36.08;26.88;;;;;;;;;;5011774;28;20018;-64
2023/10/26 14:08:57;;;;;;;42.70;26.23;;;;;;;;;;5009778;28;20026;-63
2023/10/26 14:11:24;;;;;;;40.25;26.38;;;;;;;;;;5010077;28;20029;-63
2023/10/26 14:13:50;;;;;;;36.95;25.83;;;;;;;;;;5010640;28;20033;-64
2023/10/26 14:16:19;;;;;;;45.67;26.35;;;;;;;;;;5001021;28;20037;-63
2023/10/26 14:18:46;;;;;;;38.15;26.25;;;;;;;;;;4989619;28;21632;-63
2023/10/26 14:21:12;;;;;;;40.00;26.60;;;;;;;;;;4988569;28;20197;-63
2023/10/26 14:23:38;;;;;;;37.65;25.20;;;;;;;;;;4988181;28;20026;-63
2023/10/26 14:26:04;;;;;;;38.90;26.90;;;;;;;;;;4987597;28;20034;-63
2023/10/26 14:28:31;;;;;;;38.70;27.48;;;;;;;;;;4993634;28;20042;-63
2023/10/26 14:30:57;;;;;;;39.65;26.92;;;;;;;;;;4995120;28;20073;-63
2023/10/26 14:33:23;;;;;;;34.05;25.77;;;;;;;;;;4995384;28;20022;-63
2023/10/26 14:35:51;;;;;;;31.98;23.65;;;;;;;;;;4995270;28;20041;-63
2023/10/26 14:38:17;;;;;;;31.95;23.70;;;;;;;;;;4995069;28;20966;-63
2023/10/26 14:40:45;;;;;;;31.42;23.85;;;;;;;;;;4996365;28;20045;-63
2023/10/26 14:43:11;;;;;;;33.60;24.13;;;;;;;;;;4994151;28;20034;-63
2023/10/26 14:45:37;;;;;;;33.88;23.52;;;;;;;;;;4996403;28;20030;-63
2023/10/26 14:48:04;;;;;;;33.45;24.17;;;;;;;;;;4994285;28;20041;-63
2023/10/26 14:50:30;;;;;;;29.25;22.27;;;;;;;;;;4995396;28;20034;-63
2023/10/26 14:52:56;;;;;;;31.60;22.38;;;;;;;;;;4994876;28;20029;-63
2023/10/26 14:55:23;;;;;;;27.85;22.38;;;;;;;;;;4994594;28;20091;-64
2023/10/26 14:57:49;;;;;;;27.75;22.85;;;;;;;;;;4988396;28;20131;-63
2023/10/26 15:00:15;;;;;;;29.95;23.05;;;;;;;;;;4994825;28;20051;-63
2023/10/26 15:02:43;;;;;;;29.45;22.17;;;;;;;;;;4995899;28;20145;-63
2023/10/26 15:05:09;;;;;;;31.25;22.63;;;;;;;;;;4994103;28;20080;-63
2023/10/26 15:07:36;;;;;;;31.23;23.85;;;;;;;;;;4994122;28;20038;-63
2023/10/26 15:10:02;;;;;;;32.80;23.25;;;;;;;;;;4982259;28;20045;-63
2023/10/26 15:12:28;;;;;;;27.60;21.88;;;;;;;;;;4980886;28;20089;-63
2023/10/26 15:14:54;;;;;;;29.58;23.17;;;;;;;;;;4980419;28;20120;-63
2023/10/26 15:17:22;;;;;;;32.90;23.73;;;;;;;;;;4980767;28;20100;-63
2023/10/26 15:19:48;;;;;;;28.67;23.02;;;;;;;;;;4980377;28;20034;-63
2023/10/26 15:22:14;;;;;;;32.03;23.45;;;;;;;;;;4981883;28;20146;-63
2023/10/26 15:24:40;;;;;;;29.80;22.27;;;;;;;;;;4979721;28;20034;-63
2023/10/26 15:27:09;;;;;;;31.17;22.83;;;;;;;;;;4979984;28;20047;-63
2023/10/26 15:29:35;;;;;;;31.70;22.30;;;;;;;;;;4980102;28;20070;-63
2023/10/26 15:32:02;;;;;;;27.65;21.70;;;;;;;;;;4980634;28;20232;-63
2023/10/26 15:34:28;;;;;;;30.65;21.42;;;;;;;;;;4980266;28;20041;-63
2023/10/26 15:36:54;;;;;;;30.95;23.10;;;;;;;;;;4980009;28;20131;-63
2023/10/26 15:39:20;;;;;;;34.90;23.40;;;;;;;;;;4977506;28;20043;-63
2023/10/26 15:41:47;;;;;;;30.58;22.27;;;;;;;;;;4979194;28;20791;-63
2023/10/26 15:44:14;;;;;;;29.90;22.92;;;;;;;;;;4979776;28;20049;-63
2023/10/26 15:46:41;;;;;;;27.02;21.52;;;;;;;;;;4979434;28;20026;-63
2023/10/26 15:49:07;;;;;;;29.27;22.35;;;;;;;;;;4990394;28;21894;-63
2023/10/26 15:51:34;;;;;;;27.17;21.77;;;;;;;;;;4979359;28;20482;-63
2023/10/26 15:54:00;;;;;;;28.60;21.90;;;;;;;;;;4981217;28;20172;-64
2023/10/26 15:56:26;;;;;;;28.75;21.95;;;;;;;;;;4980596;28;20041;-63
2023/10/26 15:58:52;;;;;;;30.88;21.38;;;;;;;;;;4979893;28;20053;-63
2023/10/26 16:01:19;;;;;;;26.80;20.23;;;;;;;;;;4980832;28;20361;-63
2023/10/26 16:03:45;;;;;;;23.73;18.75;;;;;;;;;;4979766;28;20117;-63
2023/10/26 16:06:15;;;;;;;24.75;19.85;;;;;;;;;;4980043;28;20030;-64
2023/10/26 16:08:42;;;;;;;22.13;17.25;;;;;;;;;;4978570;28;20033;-64
2023/10/26 16:11:12;;;;;;;24.65;17.90;;;;;;;;;;4979713;28;20068;-64
2023/10/26 16:13:38;;;;;;;23.45;17.25;;;;;;;;;;4978873;28;20038;-64
2023/10/26 16:16:04;;;;;;;25.60;19.83;;;;;;;;;;4981909;28;20027;-64
2023/10/26 16:18:30;;;;;;;23.52;18.48;;;;;;;;;;4979852;28;20176;-63
2023/10/26 16:20:56;;;;;;;26.10;18.35;;;;;;;;;;4978355;28;21224;-64
2023/10/26 16:23:22;;;;;;;25.23;18.13;;;;;;;;;;4980328;28;20065;-63
2023/10/26 16:25:49;;;;;;;27.85;19.27;;;;;;;;;;4979600;28;20026;-63
2023/10/26 16:28:17;;;;;;;24.52;18.92;;;;;;;;;;4980505;28;20041;-63
2023/10/26 16:30:44;;;;;;;25.83;18.98;;;;;;;;;;4978772;28;20823;-63
2023/10/26 16:33:11;;;;;;;27.75;20.35;;;;;;;;;;4981072;28;20500;-63
2023/10/26 16:35:39;;;;;;;25.33;19.48;;;;;;;;;;4977609;28;20044;-63
2023/10/26 16:38:05;;;;;;;29.65;21.73;;;;;;;;;;4978586;28;20135;-63
2023/10/26 16:40:31;;;;;;;28.33;21.40;;;;;;;;;;4977889;28;20409;-63
2023/10/26 16:42:57;;;;;;;27.55;20.48;;;;;;;;;;4981083;28;20034;-64
2023/10/26 16:45:24;;;;;;;27.77;20.70;;;;;;;;;;4979435;28;20077;-63
2023/10/26 16:47:50;;;;;;;24.65;20.17;;;;;;;;;;4980401;28;20029;-63
2023/10/26 16:50:17;;;;;;;23.02;17.98;;;;;;;;;;4980331;28;20034;-63
2023/10/26 16:52:43;;;;;;;24.70;16.95;;;;;;;;;;4980937;28;20042;-63
2023/10/26 16:55:09;;;;;;;21.10;16.77;;;;;;;;;;4981282;28;20036;-63
2023/10/26 16:57:35;;;;;;;21.35;15.90;;;;;;;;;;4978778;28;20079;-63
2023/10/26 17:00:05;;;;;;;19.13;15.15;;;;;;;;;;4978298;28;20061;-63
2023/10/26 17:02:34;;;;;;;17.83;13.95;;;;;;;;;;4980128;28;20030;-63
2023/10/26 17:05:00;;;;;;;19.38;13.90;;;;;;;;;;4979108;28;20163;-63
2023/10/26 17:07:26;;;;;;;17.65;14.07;;;;;;;;;;4978726;28;20033;-63
2023/10/26 17:09:53;;;;;;;18.67;14.23;;;;;;;;;;4979204;28;20119;-63
2023/10/26 17:12:19;;;;;;;18.05;13.90;;;;;;;;;;4977080;28;20038;-63
2023/10/26 17:14:47;;;;;;;18.23;14.05;;;;;;;;;;4979382;28;20037;-63
2023/10/26 17:17:14;;;;;;;18.67;14.25;;;;;;;;;;4979042;28;20055;-63
2023/10/26 17:19:40;;;;;;;20.60;14.60;;;;;;;;;;4979352;28;20717;-63
2023/10/26 17:22:06;;;;;;;21.20;14.80;;;;;;;;;;4978448;28;20037;-63
2023/10/26 17:24:32;;;;;;;17.40;13.55;;;;;;;;;;4977963;28;20041;-63
2023/10/26 17:26:59;;;;;;;24.27;14.77;;;;;;;;;;4977842;28;20567;-63
2023/10/26 17:29:27;;;;;;;20.48;14.02;;;;;;;;;;4978151;28;20435;-63
2023/10/26 17:31:53;;;;;;;19.58;14.48;;;;;;;;;;4978289;28;20022;-63
2023/10/26 17:34:19;;;;;;;18.42;13.88;;;;;;;;;;4979676;28;20149;-63
2023/10/26 17:36:45;;;;;;;19.65;14.52;;;;;;;;;;4977170;28;20489;-63
2023/10/26 17:39:11;;;;;;;17.23;13.85;;;;;;;;;;4979400;28;20492;-63
2023/10/26 17:41:38;;;;;;;20.00;14.57;;;;;;;;;;4976511;28;22041;-63
2023/10/26 17:44:04;;;;;;;18.52;14.13;;;;;;;;;;4978121;28;20058;-63
2023/10/26 17:46:30;;;;;;;18.30;13.82;;;;;;;;;;4978735;28;20053;-63
2023/10/26 17:48:57;;;;;;;18.95;13.02;;;;;;;;;;4977695;28;20049;-63
2023/10/26 17:51:24;;;;;;;20.05;14.50;;;;;;;;;;4976251;28;20050;-63
2023/10/26 17:53:50;;;;;;;19.63;14.45;;;;;;;;;;4981042;28;20041;-63
2023/10/26 17:56:18;;;;;;;20.30;14.18;;;;;;;;;;4978348;28;20034;-63
2023/10/26 17:58:44;;;;;;;19.58;15.40;;;;;;;;;;4972392;28;20046;-63
2023/10/26 18:01:11;;;;;;;22.63;15.95;;;;;;;;;;4978647;28;20042;-63
2023/10/26 18:03:38;;;;;;;20.70;14.65;;;;;;;;;;4978542;28;20030;-63
2023/10/26 18:06:05;;;;;;;22.17;16.33;;;;;;;;;;4976228;28;21787;-63
2023/10/26 18:08:35;;;;;;;24.08;17.13;;;;;;;;;;4975067;28;20927;-63
2023/10/26 18:11:01;;;;;;;20.92;16.80;;;;;;;;;;4975912;28;20033;-63
2023/10/26 18:13:29;;;;;;;21.83;17.15;;;;;;;;;;4976843;28;20108;-63